Back to Top

Language: 

My Weather Underground Personal Weather Station Historical Data with Graphs...

Delerius Weather Station Historical Data
Daily Summary for June 15, 2017 Units:  English    Metric   Both
« Previous Day
Next Day »
Daily Weekly Monthly Yearly Custom
  High: Low: Average:
Temperature: 70.2 °F 57.0 °F 63.8 °F
Dew Point: 58.1 °F 48.0 °F 52.4 °F
Humidity: 85 % 50 % 67 %
Wind Speed: 17.0 mph 0.0 mph 7.5 mph
Wind Gust: 29.0 mph - -
Wind:- - WSW
Pressure: 29.98 in 29.81 in -
Precipitation: 0.00 in    
Historical Graphs
 
 
Tabular Data for June 15, 2017
Time Temperature Dew Point Pressure Wind Wind Speed Wind Gust Humidity Rainfall Rate (Hourly) solar Conditions
00:00 66.7 °F 57.4 °F 29.86 in SE 6.0 mph 10.0 mph 72 % 0.00 in 0 W/m2
00:05 66.7 °F 57.4 °F 29.87 in SE 6.0 mph 10.0 mph 72 % 0.00 in 0 W/m2
00:10 66.6 °F 57.6 °F 29.87 in SSE 6.0 mph 10.0 mph 73 % 0.00 in 0 W/m2
00:15 66.6 °F 57.6 °F 29.86 in SSE 6.0 mph 9.0 mph 73 % 0.00 in 0 W/m2
00:20 66.4 °F 57.5 °F 29.87 in SSE 5.0 mph 9.0 mph 73 % 0.00 in 0 W/m2
00:25 66.2 °F 57.3 °F 29.87 in SSE 5.0 mph 9.0 mph 73 % 0.00 in 0 W/m2
00:30 66.2 °F 57.7 °F 29.88 in SSE 5.0 mph 7.0 mph 74 % 0.00 in 0 W/m2
00:35 66.0 °F 57.5 °F 29.87 in South 4.0 mph 8.0 mph 74 % 0.00 in 0 W/m2
00:40 66.0 °F 57.5 °F 29.87 in South 2.0 mph 8.0 mph 74 % 0.00 in 0 W/m2
00:45 66.0 °F 57.5 °F 29.87 in South 1.0 mph 6.0 mph 74 % 0.00 in 0 W/m2
00:50 66.0 °F 57.9 °F 29.88 in Calm   5.0 mph 75 % 0.00 in 0 W/m2
00:55 66.0 °F 57.9 °F 29.87 in Calm   3.0 mph 75 % 0.00 in 0 W/m2
01:01 66.0 °F 57.9 °F 29.87 in Calm   2.0 mph 75 % 0.00 in 0 W/m2
01:06 66.0 °F 57.9 °F 29.87 in South 1.0 mph 4.0 mph 75 % 0.00 in 0 W/m2
01:11 65.8 °F 58.1 °F 29.87 in South 1.0 mph 4.0 mph 76 % 0.00 in 0 W/m2
01:12 65.8 °F 58.1 °F 29.87 in South 1.0 mph 4.0 mph 76 % 0.00 in 0 W/m2
01:17 65.8 °F 58.1 °F 29.86 in Calm   3.0 mph 76 % 0.00 in 0 W/m2
01:22 65.7 °F 57.9 °F 29.86 in Calm   3.0 mph 76 % 0.00 in 0 W/m2
01:27 65.7 °F 57.9 °F 29.86 in Calm   3.0 mph 76 % 0.00 in 0 W/m2
01:32 65.5 °F 57.7 °F 29.86 in Calm   5.0 mph 76 % 0.00 in 0 W/m2
01:37 65.5 °F 57.7 °F 29.86 in South 1.0 mph 5.0 mph 76 % 0.00 in 0 W/m2
01:42 65.1 °F 57.7 °F 29.86 in Calm   3.0 mph 77 % 0.00 in 0 W/m2
01:47 64.9 °F 57.6 °F 29.86 in South 1.0 mph 4.0 mph 77 % 0.00 in 0 W/m2
01:49 64.9 °F 57.6 °F 29.86 in South 1.0 mph 4.0 mph 77 % 0.00 in 0 W/m2
01:54 64.6 °F 57.6 °F 29.86 in Calm   2.0 mph 78 % 0.00 in 0 W/m2
02:00 64.4 °F 57.4 °F 29.86 in Calm   3.0 mph 78 % 0.00 in 0 W/m2
02:05 64.0 °F 57.4 °F 29.86 in South 1.0 mph 3.0 mph 79 % 0.00 in 0 W/m2
02:10 63.9 °F 57.6 °F 29.86 in Calm   2.0 mph 80 % 0.00 in 0 W/m2
02:15 63.7 °F 57.4 °F 29.86 in SSW 1.0 mph 5.0 mph 80 % 0.00 in 0 W/m2
02:20 63.3 °F 57.4 °F 29.86 in SSW 1.0 mph 5.0 mph 81 % 0.00 in 0 W/m2
02:25 63.0 °F 57.0 °F 29.85 in Calm   3.0 mph 81 % 0.00 in 0 W/m2
02:30 62.8 °F 57.2 °F 29.85 in Calm   1.0 mph 82 % 0.00 in 0 W/m2
02:35 62.4 °F 56.9 °F 29.85 in Calm     82 % 0.00 in 0 W/m2
02:40 62.2 °F 57.0 °F 29.85 in Calm     83 % 0.00 in 0 W/m2
02:45 62.1 °F 57.2 °F 29.85 in Calm   2.0 mph 84 % 0.00 in 0 W/m2
02:50 61.9 °F 57.0 °F 29.85 in Calm   2.0 mph 84 % 0.00 in 0 W/m2
02:55 61.9 °F 57.3 °F 29.85 in SSW 1.0 mph 4.0 mph 85 % 0.00 in 0 W/m2
03:00 61.9 °F 57.3 °F 29.85 in SSW 1.0 mph 4.0 mph 85 % 0.00 in 0 W/m2
03:05 61.9 °F 56.7 °F 29.85 in SW 2.0 mph 9.0 mph 83 % 0.00 in 0 W/m2
03:10 61.9 °F 56.3 °F 29.84 in WSW 2.0 mph 9.0 mph 82 % 0.00 in 0 W/m2
03:15 62.1 °F 56.5 °F 29.84 in WSW 1.0 mph 5.0 mph 82 % 0.00 in 0 W/m2
03:20 62.1 °F 56.2 °F 29.84 in Calm   4.0 mph 81 % 0.00 in 0 W/m2
03:25 61.9 °F 56.0 °F 29.84 in Calm     81 % 0.00 in 0 W/m2
03:30 61.5 °F 55.6 °F 29.84 in Calm     81 % 0.00 in 0 W/m2
03:35 61.3 °F 55.8 °F 29.84 in Calm     82 % 0.00 in 0 W/m2
03:40 61.0 °F 55.4 °F 29.84 in Calm     82 % 0.00 in 0 W/m2
03:45 60.8 °F 55.6 °F 29.84 in Calm   1.0 mph 83 % 0.00 in 0 W/m2
03:50 60.4 °F 55.3 °F 29.84 in Calm   4.0 mph 83 % 0.00 in 0 W/m2
03:55 60.1 °F 55.2 °F 29.84 in Calm   4.0 mph 84 % 0.00 in 0 W/m2
04:00 59.7 °F 54.9 °F 29.84 in WSW 1.0 mph 6.0 mph 84 % 0.00 in 0 W/m2
04:05 59.5 °F 55.0 °F 29.84 in WSW 1.0 mph 6.0 mph 85 % 0.00 in 0 W/m2
04:10 59.5 °F 55.0 °F 29.83 in Calm   2.0 mph 85 % 0.00 in 0 W/m2
04:15 59.4 °F 54.8 °F 29.83 in Calm   5.0 mph 85 % 0.00 in 0 W/m2
04:20 59.2 °F 54.7 °F 29.83 in WSW 1.0 mph 5.0 mph 85 % 0.00 in 0 W/m2
04:26 59.0 °F 54.5 °F 29.83 in WSW 1.0 mph 4.0 mph 85 % 0.00 in 0 W/m2
04:31 58.8 °F 54.3 °F 29.83 in Calm     85 % 0.00 in 0 W/m2
04:36 58.6 °F 54.1 °F 29.83 in Calm     85 % 0.00 in 0 W/m2
04:41 58.3 °F 53.8 °F 29.83 in Calm     85 % 0.00 in 0 W/m2
04:46 57.9 °F 53.4 °F 29.83 in Calm     85 % 0.00 in 5 W/m2
04:51 57.7 °F 53.3 °F 29.83 in Calm     85 % 0.00 in 5 W/m2
04:56 57.4 °F 52.9 °F 29.83 in Calm     85 % 0.00 in 7 W/m2
05:01 57.2 °F 52.4 °F 29.82 in Calm   2.0 mph 84 % 0.00 in 11 W/m2
05:06 57.0 °F 51.9 °F 29.82 in Calm   4.0 mph 83 % 0.00 in 12 W/m2
05:11 57.2 °F 52.1 °F 29.83 in Calm   4.0 mph 83 % 0.00 in 16 W/m2
05:16 57.2 °F 51.8 °F 29.82 in SSE 1.0 mph 4.0 mph 82 % 0.00 in 18 W/m2
05:21 57.4 °F 51.6 °F 29.82 in SSE 3.0 mph 9.0 mph 81 % 0.00 in 18 W/m2
05:26 57.6 °F 51.4 °F 29.82 in SE 4.0 mph 9.0 mph 80 % 0.00 in 21 W/m2
05:31 57.7 °F 51.3 °F 29.82 in SSE 4.0 mph 7.0 mph 79 % 0.00 in 23 W/m2
05:36 57.9 °F 51.4 °F 29.82 in South 3.0 mph 6.0 mph 79 % 0.00 in 25 W/m2
05:41 57.9 °F 51.4 °F 29.82 in SSE 3.0 mph 7.0 mph 79 % 0.00 in 26 W/m2
05:46 57.9 °F 50.8 °F 29.83 in SSE 2.0 mph 7.0 mph 77 % 0.00 in 30 W/m2
05:51 58.1 °F 50.9 °F 29.83 in SSE 1.0 mph 5.0 mph 77 % 0.00 in 37 W/m2
05:56 58.3 °F 50.7 °F 29.82 in Calm   4.0 mph 76 % 0.00 in 128 W/m2
06:01 58.5 °F 50.9 °F 29.83 in South 1.0 mph 4.0 mph 76 % 0.00 in 142 W/m2
06:06 59.2 °F 51.6 °F 29.82 in South 1.0 mph 3.0 mph 76 % 0.00 in 113 W/m2
06:11 59.9 °F 52.0 °F 29.82 in South 1.0 mph 3.0 mph 75 % 0.00 in 81 W/m2
06:16 60.3 °F 51.6 °F 29.82 in SE 1.0 mph 5.0 mph 73 % 0.00 in 65 W/m2
06:21 60.4 °F 51.4 °F 29.82 in ESE 2.0 mph 5.0 mph 72 % 0.00 in 72 W/m2
06:26 60.6 °F 51.5 °F 29.82 in East 2.0 mph 5.0 mph 72 % 0.00 in 54 W/m2
06:36 61.0 °F 51.1 °F 29.82 in NNW 2.0 mph 7.0 mph 70 % 0.00 in 81 W/m2
06:41 61.2 °F 50.9 °F 29.82 in NW 3.0 mph 7.0 mph 69 % 0.00 in 88 W/m2
06:46 61.5 °F 50.5 °F 29.82 in NW 4.0 mph 11.0 mph 67 % 0.00 in 84 W/m2
06:51 61.7 °F 50.2 °F 29.82 in NW 4.0 mph 11.0 mph 66 % 0.00 in 76 W/m2
06:56 61.9 °F 50.4 °F 29.82 in NW 3.0 mph 8.0 mph 66 % 0.00 in 113 W/m2
06:57 61.9 °F 50.4 °F 29.82 in WNW 3.0 mph 9.0 mph 66 % 0.00 in 120 W/m2
07:02 61.9 °F 50.0 °F 29.82 in WSW 3.0 mph 9.0 mph 65 % 0.00 in 128 W/m2
07:07 62.1 °F 49.3 °F 29.82 in SW 2.0 mph 7.0 mph 63 % 0.00 in 116 W/m2
07:12 62.2 °F 49.5 °F 29.82 in SW 2.0 mph 8.0 mph 63 % 0.00 in 118 W/m2
07:17 62.2 °F 49.5 °F 29.82 in SSW 2.0 mph 8.0 mph 63 % 0.00 in 135 W/m2
07:22 62.2 °F 50.3 °F 29.81 in SSW 1.0 mph 6.0 mph 65 % 0.00 in 134 W/m2
07:27 62.4 °F 50.5 °F 29.81 in Calm   2.0 mph 65 % 0.00 in 139 W/m2
07:32 62.4 °F 50.1 °F 29.81 in Calm   2.0 mph 64 % 0.00 in 111 W/m2
07:37 62.6 °F 50.7 °F 29.82 in Calm   2.0 mph 65 % 0.00 in 132 W/m2
07:42 62.8 °F 50.0 °F 29.82 in Calm   1.0 mph 63 % 0.00 in 302 W/m2
07:47 63.1 °F 49.0 °F 29.82 in West 1.0 mph 9.0 mph 60 % 0.00 in 185 W/m2
07:52 63.1 °F 49.0 °F 29.82 in WSW 3.0 mph 9.0 mph 60 % 0.00 in 204 W/m2
07:57 63.3 °F 48.3 °F 29.82 in WSW 5.0 mph 11.0 mph 58 % 0.00 in 265 W/m2
08:02 63.5 °F 48.0 °F 29.82 in WSW 6.0 mph 13.0 mph 57 % 0.00 in 466 W/m2
08:07 64.0 °F 49.4 °F 29.82 in WSW 5.0 mph 13.0 mph 59 % 0.00 in 475 W/m2
08:12 64.6 °F 49.9 °F 29.82 in WSW 3.0 mph 8.0 mph 59 % 0.00 in 329 W/m2
08:17 64.9 °F 50.3 °F 29.82 in WSW 5.0 mph 10.0 mph 59 % 0.00 in 179 W/m2
08:22 65.1 °F 50.9 °F 29.82 in WSW 5.0 mph 10.0 mph 60 % 0.00 in 100 W/m2
08:27 64.9 °F 50.3 °F 29.83 in West 4.0 mph 9.0 mph 59 % 0.00 in 93 W/m2
08:32 64.8 °F 50.5 °F 29.83 in West 4.0 mph 9.0 mph 60 % 0.00 in 125 W/m2
08:37 64.6 °F 51.7 °F 29.82 in West 5.0 mph 10.0 mph 63 % 0.00 in 195 W/m2
08:42 64.4 °F 52.0 °F 29.82 in WNW 6.0 mph 12.0 mph 64 % 0.00 in 195 W/m2
08:47 64.2 °F 51.8 °F 29.83 in WNW 6.0 mph 12.0 mph 64 % 0.00 in 234 W/m2
08:52 64.2 °F 52.2 °F 29.83 in WNW 6.0 mph 11.0 mph 65 % 0.00 in 272 W/m2
08:57 64.2 °F 52.6 °F 29.83 in WNW 5.0 mph 11.0 mph 66 % 0.00 in 285 W/m2
09:03 64.6 °F 53.4 °F 29.82 in West 4.0 mph 9.0 mph 67 % 0.00 in 294 W/m2
09:07 64.6 °F 53.4 °F 29.83 in West 5.0 mph 11.0 mph 67 % 0.00 in 188 W/m2
09:12 64.6 °F 53.8 °F 29.83 in West 7.0 mph 14.0 mph 68 % 0.00 in 132 W/m2
09:17 64.2 °F 53.8 °F 29.83 in West 7.0 mph 14.0 mph 69 % 0.00 in 260 W/m2
09:22 64.8 °F 54.7 °F 29.82 in WSW 8.0 mph 18.0 mph 70 % 0.00 in 737 W/m2
09:27 65.5 °F 55.0 °F 29.83 in WSW 10.0 mph 21.0 mph 69 % 0.00 in 366 W/m2
09:32 65.5 °F 55.0 °F 29.82 in WSW 11.0 mph 21.0 mph 69 % 0.00 in 257 W/m2
09:37 64.9 °F 54.5 °F 29.83 in West 12.0 mph 23.0 mph 69 % 0.00 in 339 W/m2
09:42 65.5 °F 55.0 °F 29.83 in West 11.0 mph 23.0 mph 69 % 0.00 in 334 W/m2
09:46 65.7 °F 55.2 °F 29.83 in West 10.0 mph 20.0 mph 69 % 0.00 in 253 W/m2
09:51 65.3 °F 54.9 °F 29.83 in West 12.0 mph 22.0 mph 69 % 0.00 in 200 W/m2
09:56 64.8 °F 53.9 °F 29.83 in WSW 13.0 mph 22.0 mph 68 % 0.00 in 276 W/m2
10:01 64.4 °F 54.4 °F 29.83 in WSW 12.0 mph 22.0 mph 70 % 0.00 in 292 W/m2
10:06 64.4 °F 54.4 °F 29.83 in WSW 11.0 mph 21.0 mph 70 % 0.00 in 318 W/m2
10:11 64.4 °F 54.4 °F 29.83 in WSW 12.0 mph 25.0 mph 70 % 0.00 in 253 W/m2
10:16 64.0 °F 54.1 °F 29.83 in WSW 11.0 mph 25.0 mph 70 % 0.00 in 355 W/m2
10:21 64.2 °F 55.0 °F 29.83 in WSW 11.0 mph 23.0 mph 72 % 0.00 in 766 W/m2
10:26 64.8 °F 54.7 °F 29.83 in WSW 12.0 mph 22.0 mph 70 % 0.00 in 772 W/m2
10:31 65.5 °F 55.0 °F 29.83 in WSW 13.0 mph 25.0 mph 69 % 0.00 in 791 W/m2
10:36 66.0 °F 54.3 °F 29.83 in WSW 15.0 mph 25.0 mph 66 % 0.00 in 823 W/m2
10:41 66.4 °F 53.8 °F 29.83 in WSW 16.0 mph 25.0 mph 64 % 0.00 in 828 W/m2
10:46 66.7 °F 53.3 °F 29.83 in WSW 16.0 mph 25.0 mph 62 % 0.00 in 991 W/m2
10:51 67.3 °F 54.3 °F 29.84 in WSW 15.0 mph 25.0 mph 63 % 0.00 in 1044 W/m2
10:56 67.6 °F 53.7 °F 29.84 in West 15.0 mph 24.0 mph 61 % 0.00 in 1097 W/m2
11:01 68.2 °F 54.7 °F 29.83 in West 14.0 mph 23.0 mph 62 % 0.00 in 1192 W/m2
11:06 68.5 °F 54.6 °F 29.83 in West 13.0 mph 20.0 mph 61 % 0.00 in 417 W/m2
11:11 68.2 °F 54.2 °F 29.83 in WSW 13.0 mph 20.0 mph 61 % 0.00 in 397 W/m2
11:16 68.2 °F 54.7 °F 29.84 in WSW 13.0 mph 25.0 mph 62 % 0.00 in 1192 W/m2
11:21 68.2 °F 54.2 °F 29.84 in West 14.0 mph 25.0 mph 61 % 0.00 in 265 W/m2
11:26 67.3 °F 54.3 °F 29.84 in WSW 14.0 mph 25.0 mph 63 % 0.00 in 281 W/m2
11:31 66.6 °F 54.4 °F 29.84 in West 12.0 mph 25.0 mph 65 % 0.00 in 197 W/m2
11:36 66.0 °F 53.9 °F 29.84 in West 11.0 mph 18.0 mph 65 % 0.00 in 258 W/m2
11:41 66.0 °F 54.7 °F 29.84 in WSW 10.0 mph 18.0 mph 67 % 0.00 in 962 W/m2
11:46 66.7 °F 53.3 °F 29.84 in WSW 11.0 mph 24.0 mph 62 % 0.00 in 891 W/m2
11:52 67.6 °F 52.3 °F 29.84 in WSW 11.0 mph 24.0 mph 58 % 0.00 in 900 W/m2
11:57 68.0 °F 51.7 °F 29.83 in WSW 14.0 mph 27.0 mph 56 % 0.00 in 902 W/m2
12:02 68.7 °F 51.4 °F 29.83 in WSW 17.0 mph 28.0 mph 54 % 0.00 in 909 W/m2
12:07 69.3 °F 51.4 °F 29.83 in West 17.0 mph 28.0 mph 53 % 0.00 in 1011 W/m2
12:12 68.7 °F 49.9 °F 29.83 in West 17.0 mph 29.0 mph 51 % 0.00 in 213 W/m2
12:17 68.4 °F 50.6 °F 29.83 in West 15.0 mph 29.0 mph 53 % 0.00 in 1014 W/m2
12:22 68.7 °F 49.9 °F 29.83 in West 15.0 mph 26.0 mph 51 % 0.00 in 998 W/m2
12:27 69.3 °F 49.8 °F 29.84 in West 16.0 mph 29.0 mph 50 % 0.00 in 1007 W/m2
12:32 69.4 °F 51.0 °F 29.84 in West 13.0 mph 29.0 mph 52 % 0.00 in 944 W/m2
12:37 70.0 °F 51.0 °F 29.84 in West 10.0 mph 20.0 mph 51 % 0.00 in 1095 W/m2
12:42 70.2 °F 52.2 °F 29.85 in West 12.0 mph 21.0 mph 53 % 0.00 in 281 W/m2
12:47 70.0 °F 52.1 °F 29.85 in West 13.0 mph 24.0 mph 53 % 0.00 in 230 W/m2
12:52 69.3 °F 51.4 °F 29.85 in West 14.0 mph 24.0 mph 53 % 0.00 in 1032 W/m2
12:57 68.9 °F 50.5 °F 29.85 in West 14.0 mph 24.0 mph 52 % 0.00 in 1032 W/m2
13:02 68.5 °F 49.7 °F 29.85 in West 14.0 mph 24.0 mph 51 % 0.00 in 229 W/m2
13:07 68.5 °F 50.2 °F 29.85 in West 14.0 mph 24.0 mph 52 % 0.00 in 993 W/m2
13:12 68.5 °F 50.2 °F 29.85 in West 14.0 mph 24.0 mph 52 % 0.00 in 991 W/m2
13:17 68.7 °F 49.9 °F 29.85 in WSW 14.0 mph 22.0 mph 51 % 0.00 in 1063 W/m2
13:22 68.7 °F 49.3 °F 29.85 in West 14.0 mph 26.0 mph 50 % 0.00 in 362 W/m2
13:27 68.2 °F 49.4 °F 29.85 in West 14.0 mph 26.0 mph 51 % 0.00 in 287 W/m2
13:32 68.0 °F 49.7 °F 29.85 in West 12.0 mph 23.0 mph 52 % 0.00 in 413 W/m2
13:37 68.0 °F 50.2 °F 29.86 in West 12.0 mph 23.0 mph 53 % 0.00 in 1060 W/m2
13:42 68.2 °F 49.9 °F 29.86 in West 13.0 mph 23.0 mph 52 % 0.00 in 285 W/m2
13:47 67.8 °F 49.5 °F 29.85 in West 12.0 mph 20.0 mph 52 % 0.00 in 250 W/m2
13:52 67.3 °F 49.0 °F 29.85 in West 13.0 mph 23.0 mph 52 % 0.00 in 278 W/m2
13:58 67.1 °F 49.4 °F 29.85 in WSW 13.0 mph 23.0 mph 53 % 0.00 in 990 W/m2
14:03 68.0 °F 49.7 °F 29.85 in West 12.0 mph 22.0 mph 52 % 0.00 in 979 W/m2
14:08 68.4 °F 50.6 °F 29.85 in West 11.0 mph 22.0 mph 53 % 0.00 in 1016 W/m2
14:13 68.5 °F 51.2 °F 29.85 in West 10.0 mph 19.0 mph 54 % 0.00 in 1157 W/m2
14:18 69.1 °F 51.2 °F 29.85 in West 10.0 mph 20.0 mph 53 % 0.00 in 269 W/m2
14:23 68.5 °F 51.2 °F 29.85 in West 11.0 mph 20.0 mph 54 % 0.00 in 281 W/m2
14:28 68.4 °F 51.1 °F 29.85 in West 10.0 mph 18.0 mph 54 % 0.00 in 1071 W/m2
14:33 68.4 °F 50.6 °F 29.85 in West 10.0 mph 20.0 mph 53 % 0.00 in 265 W/m2
14:38 68.0 °F 50.7 °F 29.85 in West 10.0 mph 20.0 mph 54 % 0.00 in 1027 W/m2
14:43 68.7 °F 50.9 °F 29.85 in WSW 11.0 mph 21.0 mph 53 % 0.00 in 269 W/m2
14:48 68.9 °F 50.5 °F 29.86 in West 12.0 mph 21.0 mph 52 % 0.00 in 336 W/m2
14:53 69.1 °F 51.2 °F 29.85 in West 14.0 mph 22.0 mph 53 % 0.00 in 1062 W/m2
14:58 69.3 °F 50.9 °F 29.86 in West 15.0 mph 25.0 mph 52 % 0.00 in 369 W/m2
15:04 68.5 °F 51.2 °F 29.86 in West 15.0 mph 25.0 mph 54 % 0.00 in 997 W/m2
15:09 68.9 °F 51.1 °F 29.86 in West 14.0 mph 28.0 mph 53 % 0.00 in 311 W/m2
15:14 69.1 °F 51.7 °F 29.86 in West 13.0 mph 28.0 mph 54 % 0.00 in 939 W/m2
15:19 69.1 °F 51.2 °F 29.86 in West 12.0 mph 22.0 mph 53 % 0.00 in 951 W/m2
15:24 69.1 °F 51.7 °F 29.86 in West 12.0 mph 21.0 mph 54 % 0.00 in 276 W/m2
15:29 68.5 °F 50.7 °F 29.86 in West 12.0 mph 22.0 mph 53 % 0.00 in 248 W/m2
15:34 67.8 °F 50.6 °F 29.86 in West 12.0 mph 22.0 mph 54 % 0.00 in 334 W/m2
15:39 67.5 °F 51.2 °F 29.86 in West 10.0 mph 19.0 mph 56 % 0.00 in 410 W/m2
15:44 67.6 °F 51.9 °F 29.86 in West 9.0 mph 18.0 mph 57 % 0.00 in 274 W/m2
15:49 67.6 °F 51.4 °F 29.86 in West 10.0 mph 18.0 mph 56 % 0.00 in 200 W/m2
15:54 67.5 °F 51.2 °F 29.86 in West 10.0 mph 19.0 mph 56 % 0.00 in 944 W/m2
15:59 67.8 °F 51.5 °F 29.86 in West 9.0 mph 19.0 mph 56 % 0.00 in 835 W/m2
16:01 68.2 °F 51.4 °F 29.86 in West 10.0 mph 19.0 mph 55 % 0.00 in 816 W/m2
16:06 68.5 °F 51.2 °F 29.86 in WSW 11.0 mph 19.0 mph 54 % 0.00 in 397 W/m2
16:11 68.9 °F 50.0 °F 29.86 in West 12.0 mph 21.0 mph 51 % 0.00 in 976 W/m2
16:16 69.3 °F 50.4 °F 29.86 in West 14.0 mph 22.0 mph 51 % 0.00 in 225 W/m2
16:21 68.5 °F 49.7 °F 29.86 in West 12.0 mph 23.0 mph 51 % 0.00 in 207 W/m2
16:26 68.0 °F 50.7 °F 29.86 in West 12.0 mph 23.0 mph 54 % 0.00 in 626 W/m2
16:31 67.8 °F 51.1 °F 29.86 in West 13.0 mph 23.0 mph 55 % 0.00 in 223 W/m2
16:36 67.5 °F 50.7 °F 29.86 in West 12.0 mph 21.0 mph 55 % 0.00 in 262 W/m2
16:41 67.3 °F 51.5 °F 29.86 in West 11.0 mph 19.0 mph 57 % 0.00 in 294 W/m2
16:46 67.5 °F 51.2 °F 29.86 in West 10.0 mph 19.0 mph 56 % 0.00 in 657 W/m2
16:51 67.8 °F 51.5 °F 29.86 in West 11.0 mph 20.0 mph 56 % 0.00 in 642 W/m2
16:56 68.4 °F 51.6 °F 29.86 in West 12.0 mph 21.0 mph 55 % 0.00 in 582 W/m2
17:01 68.2 °F 50.9 °F 29.86 in West 15.0 mph 26.0 mph 54 % 0.00 in 619 W/m2
17:06 68.2 °F 50.9 °F 29.86 in West 14.0 mph 26.0 mph 54 % 0.00 in 185 W/m2
17:11 67.6 °F 50.4 °F 29.86 in West 12.0 mph 20.0 mph 54 % 0.00 in 179 W/m2
17:16 67.3 °F 51.0 °F 29.87 in West 11.0 mph 19.0 mph 56 % 0.00 in 121 W/m2
17:21 66.7 °F 51.0 °F 29.87 in West 11.0 mph 19.0 mph 57 % 0.00 in 195 W/m2
17:26 66.4 °F 49.2 °F 29.87 in West 11.0 mph 21.0 mph 54 % 0.00 in 148 W/m2
17:31 66.0 °F 49.4 °F 29.87 in West 11.0 mph 21.0 mph 55 % 0.00 in 98 W/m2
17:36 66.0 °F 49.9 °F 29.87 in West 10.0 mph 21.0 mph 56 % 0.00 in 79 W/m2
17:41 65.8 °F 49.2 °F 29.88 in West 10.0 mph 19.0 mph 55 % 0.00 in 109 W/m2
17:46 65.3 °F 48.7 °F 29.88 in West 12.0 mph 21.0 mph 55 % 0.00 in 118 W/m2
17:51 65.1 °F 49.0 °F 29.88 in WSW 11.0 mph 21.0 mph 56 % 0.00 in 95 W/m2
17:52 65.1 °F 49.0 °F 29.88 in WSW 11.0 mph 21.0 mph 56 % 0.00 in 91 W/m2
17:57 64.9 °F 48.9 °F 29.88 in WSW 10.0 mph 22.0 mph 56 % 0.00 in 91 W/m2
18:02 64.8 °F 48.7 °F 29.88 in West 12.0 mph 22.0 mph 56 % 0.00 in 63 W/m2
18:07 64.6 °F 49.0 °F 29.89 in West 12.0 mph 22.0 mph 57 % 0.00 in 40 W/m2
18:12 64.4 °F 48.8 °F 29.89 in West 11.0 mph 21.0 mph 57 % 0.00 in 44 W/m2
18:17 64.0 °F 49.4 °F 29.90 in West 11.0 mph 21.0 mph 59 % 0.00 in 83 W/m2
18:22 63.7 °F 50.0 °F 29.90 in West 12.0 mph 21.0 mph 61 % 0.00 in 84 W/m2
18:27 63.3 °F 50.1 °F 29.90 in West 11.0 mph 20.0 mph 62 % 0.00 in 91 W/m2
18:32 63.1 °F 50.3 °F 29.90 in West 11.0 mph 19.0 mph 63 % 0.00 in 60 W/m2
18:37 63.0 °F 50.6 °F 29.90 in WSW 10.0 mph 19.0 mph 64 % 0.00 in 54 W/m2
18:42 62.8 °F 51.2 °F 29.90 in West 9.0 mph 18.0 mph 66 % 0.00 in 58 W/m2
18:47 62.6 °F 51.5 °F 29.90 in West 9.0 mph 19.0 mph 67 % 0.00 in 51 W/m2
18:52 62.2 °F 51.1 °F 29.90 in West 10.0 mph 19.0 mph 67 % 0.00 in 28 W/m2
18:57 62.1 °F 52.2 °F 29.90 in West 9.0 mph 16.0 mph 70 % 0.00 in 58 W/m2
19:02 61.7 °F 52.2 °F 29.90 in West 8.0 mph 14.0 mph 71 % 0.00 in 86 W/m2
19:07 61.5 °F 52.4 °F 29.90 in West 7.0 mph 12.0 mph 72 % 0.00 in 91 W/m2
19:12 61.3 °F 52.2 °F 29.90 in West 6.0 mph 11.0 mph 72 % 0.00 in 74 W/m2
19:17 61.3 °F 51.9 °F 29.91 in West 7.0 mph 12.0 mph 71 % 0.00 in 58 W/m2
19:22 61.3 °F 52.2 °F 29.91 in West 7.0 mph 12.0 mph 72 % 0.00 in 39 W/m2
19:27 61.5 °F 51.6 °F 29.91 in WSW 7.0 mph 13.0 mph 70 % 0.00 in 35 W/m2
19:32 61.5 °F 51.3 °F 29.91 in WSW 11.0 mph 23.0 mph 69 % 0.00 in 46 W/m2
19:37 61.7 °F 51.0 °F 29.92 in West 12.0 mph 23.0 mph 68 % 0.00 in 54 W/m2
19:42 61.9 °F 51.2 °F 29.92 in West 10.0 mph 20.0 mph 68 % 0.00 in 58 W/m2
19:47 61.9 °F 50.8 °F 29.92 in WSW 9.0 mph 19.0 mph 67 % 0.00 in 42 W/m2
19:52 61.9 °F 50.8 °F 29.92 in WSW 9.0 mph 19.0 mph 67 % 0.00 in 30 W/m2
19:58 61.9 °F 51.2 °F 29.92 in West 8.0 mph 16.0 mph 68 % 0.00 in 25 W/m2
20:03 61.7 °F 50.6 °F 29.92 in WSW 9.0 mph 18.0 mph 67 % 0.00 in 26 W/m2
20:08 61.7 °F 50.6 °F 29.92 in WSW 10.0 mph 19.0 mph 67 % 0.00 in 28 W/m2
20:13 61.5 °F 50.5 °F 29.92 in WSW 9.0 mph 19.0 mph 67 % 0.00 in 14 W/m2
20:18 61.5 °F 50.5 °F 29.92 in WSW 8.0 mph 13.0 mph 67 % 0.00 in 11 W/m2
20:23 61.5 °F 50.5 °F 29.93 in WSW 8.0 mph 16.0 mph 67 % 0.00 in 5 W/m2
20:28 61.3 °F 50.7 °F 29.93 in WSW 10.0 mph 18.0 mph 68 % 0.00 in 5 W/m2
20:33 61.2 °F 51.3 °F 29.93 in WSW 11.0 mph 18.0 mph 70 % 0.00 in 11 W/m2
20:38 60.6 °F 50.8 °F 29.94 in WSW 11.0 mph 20.0 mph 70 % 0.00 in 19 W/m2
20:43 60.4 °F 51.0 °F 29.94 in West 10.0 mph 20.0 mph 71 % 0.00 in 19 W/m2
20:48 60.3 °F 50.8 °F 29.94 in West 11.0 mph 18.0 mph 71 % 0.00 in 18 W/m2
20:53 60.3 °F 51.2 °F 29.94 in West 11.0 mph 18.0 mph 72 % 0.00 in 14 W/m2
20:58 60.3 °F 51.2 °F 29.94 in West 10.0 mph 19.0 mph 72 % 0.00 in 12 W/m2
21:03 60.1 °F 51.0 °F 29.94 in West 10.0 mph 19.0 mph 72 % 0.00 in 16 W/m2
21:08 60.1 °F 51.0 °F 29.94 in West 10.0 mph 18.0 mph 72 % 0.00 in 9 W/m2
21:13 60.1 °F 51.0 °F 29.94 in West 10.0 mph 18.0 mph 72 % 0.00 in 5 W/m2
21:18 59.9 °F 51.2 °F 29.95 in West 10.0 mph 15.0 mph 73 % 0.00 in 0 W/m2
21:23 59.7 °F 51.0 °F 29.95 in West 8.0 mph 15.0 mph 73 % 0.00 in 0 W/m2
21:28 59.7 °F 51.4 °F 29.95 in West 7.0 mph 15.0 mph 74 % 0.00 in 5 W/m2
21:33 59.7 °F 51.4 °F 29.95 in West 7.0 mph 12.0 mph 74 % 0.00 in 0 W/m2
21:38 59.7 °F 51.4 °F 29.95 in West 7.0 mph 12.0 mph 74 % 0.00 in 0 W/m2
21:43 59.7 °F 51.4 °F 29.96 in West 6.0 mph 12.0 mph 74 % 0.00 in 0 W/m2
21:48 59.5 °F 50.9 °F 29.96 in West 7.0 mph 15.0 mph 73 % 0.00 in 0 W/m2
21:53 59.5 °F 50.9 °F 29.96 in West 8.0 mph 15.0 mph 73 % 0.00 in 0 W/m2
21:58 59.4 °F 50.7 °F 29.96 in West 7.0 mph 13.0 mph 73 % 0.00 in 0 W/m2
22:03 59.4 °F 51.1 °F 29.96 in West 6.0 mph 12.0 mph 74 % 0.00 in 0 W/m2
22:08 59.2 °F 50.9 °F 29.96 in West 8.0 mph 19.0 mph 74 % 0.00 in 0 W/m2
22:13 59.0 °F 50.7 °F 29.97 in West 9.0 mph 19.0 mph 74 % 0.00 in 0 W/m2
22:18 58.8 °F 50.5 °F 29.97 in West 10.0 mph 18.0 mph 74 % 0.00 in 0 W/m2
22:23 58.8 °F 50.5 °F 29.97 in West 9.0 mph 16.0 mph 74 % 0.00 in 0 W/m2
22:28 58.8 °F 50.5 °F 29.97 in West 9.0 mph 16.0 mph 74 % 0.00 in 0 W/m2
22:33 59.0 °F 50.7 °F 29.97 in West 10.0 mph 22.0 mph 74 % 0.00 in 0 W/m2
22:38 59.0 °F 50.7 °F 29.97 in West 11.0 mph 22.0 mph 74 % 0.00 in 0 W/m2
22:43 58.8 °F 50.5 °F 29.98 in West 10.0 mph 23.0 mph 74 % 0.00 in 0 W/m2
22:48 58.8 °F 50.5 °F 29.97 in West 10.0 mph 23.0 mph 74 % 0.00 in 0 W/m2
22:53 58.8 °F 50.2 °F 29.98 in WNW 11.0 mph 24.0 mph 73 % 0.00 in 0 W/m2
22:58 58.8 °F 50.2 °F 29.98 in West 12.0 mph 24.0 mph 73 % 0.00 in 0 W/m2
23:03 58.6 °F 50.0 °F 29.97 in West 10.0 mph 20.0 mph 73 % 0.00 in 0 W/m2
23:08 58.6 °F 50.4 °F 29.98 in West 10.0 mph 20.0 mph 74 % 0.00 in 0 W/m2
23:13 58.5 °F 50.2 °F 29.97 in West 10.0 mph 18.0 mph 74 % 0.00 in 0 W/m2
23:18 58.5 °F 50.6 °F 29.98 in West 9.0 mph 18.0 mph 75 % 0.00 in 0 W/m2
23:24 58.5 °F 50.6 °F 29.98 in West 10.0 mph 20.0 mph 75 % 0.00 in 0 W/m2
23:29 58.5 °F 50.6 °F 29.98 in West 9.0 mph 20.0 mph 75 % 0.00 in 0 W/m2
23:34 58.5 °F 50.6 °F 29.98 in West 8.0 mph 13.0 mph 75 % 0.00 in 0 W/m2
23:39 58.3 °F 50.7 °F 29.98 in West 8.0 mph 12.0 mph 76 % 0.00 in 0 W/m2
23:44 58.3 °F 50.7 °F 29.98 in West 8.0 mph 15.0 mph 76 % 0.00 in 0 W/m2
23:49 58.3 °F 51.1 °F 29.98 in West 9.0 mph 18.0 mph 77 % 0.00 in 0 W/m2
23:54 58.1 °F 50.9 °F 29.98 in West 10.0 mph 19.0 mph 77 % 0.00 in 0 W/m2
23:59 58.1 °F 50.9 °F 29.98 in West 11.0 mph 19.0 mph 77 % 0.00 in 0 W/m2
Delerius-Weather
Compliments of Weather Underground - 2.25 mb

Data updates at regular intervals.